Terminal Aerodrome Forecast
Issued by NWS Nashville, TN

Home | Current Version | Previous Version | Text Only | Print | Product List | Glossary On
Versions: 1 2 3 4 5 6 7 8 9 10 11 12 13 14 15 16 17 18 19
963
FTUS44 KOHX 242320
TAFBNA
TAF
KBNA 242320Z 2500/2524 18013G20KT P6SM FEW060 OVC070
     FM251800 17015G23KT P6SM VCSH OVC050 PROB30 2520/2524 2SM TSRA
      OVC035CB=

USA.gov is the U.S. government's official web portal to all federal, state and local government web resources and services.